Lillyville, Illinois
Current Conditions -  °F | °C
As of 6:55 PM on Friday 19 Dec 2014 (Local Time) from K1H2 Reporting Station
Clear Clear  
Wind Chill: 32°   Ceiling: Unl
Heat Index: 32°   Visibility: 10mi
Dew Point: 23°   Wind: 0mph
Humidity: 70%   Direction: NA
Pressure: 30.29"   Gusts: NA
Location:  39.1183°N, 88.6059°W
Report Text: K1H2 200055Z AUTO 00000KT 10SM CLR 00/M05 A3029 RMK AO2 T10011049
Loading
Personal Weather Stations






























Interactive Weather Map New forecast layout! Learn more

10-Day Weather Forecast

Advertisements
Track Severe Weather on mobile